aviador You're here:

LJCE Decoded Metar

CERKLJE in SLOVENIA
Report Time2017-11-25 09:00:00
UTC Time2017-11-25 09:25:44
Flight Rules vfr VFR
WindVRB at 01 kt
Visibility9999 m
Phenomena:N/A
Clouds:Broken 040 Hf
Expected CloudBase > 800 ft AGL from Temp-Dew spread
Ceiling4,000 ft
Temp07°C (ISA -7)
Dew Point05°C (87% RH)
AAT5.5°C
QNH1014 hPa
Density Alt-246 ft
Elevation508 ft
Report Wrong Elevation
Raw Report
METAR LJCE 250900Z VRB01KT 9999 BKN040 07/05 Q1014=

Extra information for LJCE:More info

Metar Taf Metar & Taf Last 4 Metars F.Rules Stats Wind Profile Meteogram Temp Stats Airport Information Weather charts Add Link Nearby VenuesMetar ALERT Operation Metar Decoded Social comments